createdAt,value
2022-12-23T00:11:16.036Z,10.22
2022-12-23T00:40:15.742Z,10.53
2022-12-23T01:09:06.536Z,10.85
2022-12-23T01:46:43.616Z,11.01
2022-12-23T02:14:34.589Z,10.97
2022-12-23T02:43:16.928Z,10.84
2022-12-23T03:12:05.679Z,11.04
2022-12-23T03:40:39.359Z,11.14
2022-12-23T04:09:22.988Z,11.09
2022-12-23T04:37:55.069Z,10.7
2022-12-23T05:08:00.464Z,10.56
2022-12-23T05:36:14.205Z,10.54
2022-12-23T06:04:28.303Z,10.55
2022-12-23T06:33:35.694Z,10.53
2022-12-23T07:02:35.949Z,10.57
2022-12-23T07:30:33.654Z,10.7
2022-12-23T07:59:01.023Z,10.94
2022-12-23T08:28:14.391Z,11.14
2022-12-23T08:56:24.238Z,11.13
2022-12-23T09:24:35.906Z,11.11
2022-12-23T09:53:03.375Z,11.11
2022-12-23T10:21:26.321Z,11.39
2022-12-23T10:49:42.790Z,11.56
2022-12-23T11:18:06.428Z,11.71
2022-12-23T11:46:35.816Z,11.84
2022-12-23T12:14:53.695Z,11.87
2022-12-23T12:43:32.350Z,11.96
2022-12-23T13:41:42.801Z,12.27
2022-12-23T14:10:11.930Z,12.35
2022-12-23T14:38:34.933Z,12.11
2022-12-23T15:07:00.436Z,12.14
2022-12-23T15:35:37.145Z,12.12
2022-12-23T16:04:14.398Z,12.18
2022-12-23T16:33:09.728Z,12.19
2022-12-23T17:01:30.994Z,12.27
2022-12-23T18:02:28.404Z,11.82
2022-12-23T18:29:54.112Z,11.79
2022-12-23T18:58:37.436Z,11.97
2022-12-23T19:27:12.448Z,11.87
2022-12-23T19:56:50.211Z,11.83
2022-12-23T20:25:18.621Z,11.9
2022-12-23T20:53:08.924Z,11.53
2022-12-23T21:22:12.822Z,11.31
2022-12-23T22:07:47.848Z,10.87
2022-12-23T23:34:09.345Z,10.84
